createdAt,value
2023-04-28T00:00:07.870Z,9.05
2023-04-28T00:02:34.684Z,9.35
2023-04-28T00:05:01.596Z,9.20
2023-04-28T00:07:28.424Z,10.10
2023-04-28T00:09:56.932Z,8.88
2023-04-28T00:12:23.819Z,9.80
2023-04-28T00:14:50.489Z,10.15
2023-04-28T00:17:17.350Z,9.45
2023-04-28T00:19:45.116Z,8.40
2023-04-28T00:22:11.828Z,10.75
2023-04-28T00:24:38.391Z,10.55
2023-04-28T00:27:05.006Z,10.38
2023-04-28T00:29:31.632Z,9.88
2023-04-28T00:31:58.326Z,9.13
2023-04-28T00:34:24.992Z,9.43
2023-04-28T00:36:51.640Z,10.35
2023-04-28T00:39:18.627Z,9.98
2023-04-28T00:41:45.255Z,9.85
2023-04-28T00:44:11.862Z,8.52
2023-04-28T00:46:38.646Z,9.10
2023-04-28T00:49:05.969Z,8.85
2023-04-28T00:51:33.883Z,10.93
2023-04-28T00:54:01.053Z,10.30
2023-04-28T00:56:31.279Z,9.88
2023-04-28T00:58:58.671Z,10.13
2023-04-28T01:01:25.817Z,10.18
2023-04-28T01:03:53.096Z,10.63
2023-04-28T01:06:20.499Z,10.32
2023-04-28T01:08:49.373Z,10.05
2023-04-28T01:11:16.308Z,10.50
2023-04-28T01:13:42.972Z,9.93
2023-04-28T01:16:09.685Z,10.00
2023-04-28T01:18:36.634Z,10.70
2023-04-28T01:21:04.563Z,10.63
2023-04-28T01:23:31.294Z,10.63
2023-04-28T01:25:58.421Z,10.60
2023-04-28T01:28:25.084Z,10.95
2023-04-28T01:30:51.896Z,10.18
2023-04-28T01:33:18.555Z,10.88
2023-04-28T01:35:45.146Z,10.35
2023-04-28T01:38:11.899Z,10.27
2023-04-28T01:40:38.634Z,10.85
2023-04-28T01:43:05.335Z,12.15
2023-04-28T01:45:31.952Z,10.80
2023-04-28T01:47:58.640Z,10.65
2023-04-28T01:50:25.441Z,11.60
2023-04-28T01:52:52.072Z,11.38
2023-04-28T01:55:18.713Z,11.27
2023-04-28T01:57:45.446Z,10.60
2023-04-28T02:00:12.300Z,11.95
2023-04-28T02:02:39.024Z,10.80
2023-04-28T02:05:06.333Z,11.57
2023-04-28T02:07:33.036Z,12.00
2023-04-28T02:09:59.703Z,10.82
2023-04-28T02:12:26.352Z,11.23
2023-04-28T02:14:53.285Z,12.07
2023-04-28T02:17:19.932Z,10.70
2023-04-28T02:19:46.654Z,12.30
2023-04-28T02:22:13.321Z,11.82
2023-04-28T02:24:40.010Z,12.13
2023-04-28T02:27:06.654Z,10.73
2023-04-28T02:29:33.294Z,12.00
2023-04-28T02:32:00.170Z,12.57
2023-04-28T02:34:26.972Z,10.95
2023-04-28T02:36:53.694Z,11.38
2023-04-28T02:39:22.076Z,12.43
2023-04-28T02:41:48.739Z,11.65
2023-04-28T02:44:15.911Z,12.15
2023-04-28T02:46:42.765Z,12.52
2023-04-28T02:49:09.463Z,11.82
2023-04-28T02:51:36.216Z,12.48
2023-04-28T02:54:02.976Z,12.27
2023-04-28T02:56:33.080Z,12.73
2023-04-28T02:58:59.730Z,12.00
2023-04-28T03:01:26.908Z,13.10
2023-04-28T03:03:53.876Z,13.40
2023-04-28T03:06:20.540Z,13.10
2023-04-28T03:08:47.260Z,12.68
2023-04-28T03:11:13.882Z,11.75
2023-04-28T03:13:40.598Z,12.90
2023-04-28T03:16:08.089Z,13.18
2023-04-28T03:18:35.011Z,16.35
2023-04-28T03:21:01.720Z,13.23
2023-04-28T03:23:28.460Z,13.25
2023-04-28T03:25:55.108Z,12.07
2023-04-28T03:28:22.053Z,13.38
2023-04-28T03:30:48.725Z,13.27
2023-04-28T03:33:15.457Z,12.60
2023-04-28T03:35:42.037Z,12.23
2023-04-28T03:38:08.677Z,13.15
2023-04-28T03:40:35.583Z,13.18
2023-04-28T03:43:03.971Z,12.93
2023-04-28T03:45:31.646Z,11.98
2023-04-28T03:47:58.393Z,13.80
2023-04-28T03:50:26.699Z,13.63
2023-04-28T03:52:53.694Z,14.15
2023-04-28T03:55:20.369Z,14.75
2023-04-28T03:57:47.020Z,13.38
2023-04-28T04:00:14.109Z,13.75
2023-04-28T04:02:40.896Z,14.07
2023-04-28T04:05:08.046Z,14.25
2023-04-28T04:07:34.908Z,14.27
2023-04-28T04:10:03.899Z,14.70
2023-04-28T04:12:31.252Z,13.52
2023-04-28T04:14:57.877Z,14.43
2023-04-28T04:17:24.620Z,15.63
2023-04-28T04:19:51.318Z,15.75
2023-04-28T04:22:18.019Z,16.05
2023-04-28T04:24:44.736Z,15.07
2023-04-28T04:27:11.398Z,13.25
2023-04-28T04:29:43.362Z,14.52
2023-04-28T04:32:09.966Z,12.95
2023-04-28T04:34:36.791Z,16.05
2023-04-28T04:37:03.385Z,15.43
2023-04-28T04:39:30.099Z,14.07
2023-04-28T04:41:56.701Z,13.75
2023-04-28T04:44:23.362Z,12.40
2023-04-28T04:46:50.016Z,13.55
2023-04-28T04:49:17.345Z,14.90
2023-04-28T04:51:44.004Z,15.40
2023-04-28T04:54:10.600Z,15.15
2023-04-28T04:56:37.568Z,14.40
2023-04-28T04:59:04.185Z,14.82
2023-04-28T05:01:31.062Z,13.70
2023-04-28T05:03:57.852Z,16.95
2023-04-28T05:06:24.698Z,16.88
2023-04-28T05:08:51.275Z,14.15
2023-04-28T05:11:18.052Z,16.85
2023-04-28T05:13:44.706Z,15.48
2023-04-28T05:16:11.369Z,16.27
2023-04-28T05:18:38.046Z,15.88
2023-04-28T05:21:04.743Z,15.00
2023-04-28T05:23:31.359Z,15.30
2023-04-28T05:25:58.084Z,17.58
2023-04-28T05:28:24.761Z,18.55
2023-04-28T05:30:51.485Z,16.63
2023-04-28T05:33:18.051Z,20.00
2023-04-28T05:35:44.740Z,19.55
2023-04-28T05:38:14.489Z,19.23
2023-04-28T05:40:41.172Z,18.23
2023-04-28T05:43:07.843Z,20.50
2023-04-28T05:45:35.220Z,19.40
2023-04-28T05:48:05.272Z,20.35
2023-04-28T05:50:32.431Z,22.52
2023-04-28T05:52:59.395Z,24.85
2023-04-28T05:55:26.976Z,19.50
2023-04-28T05:57:54.538Z,21.67
2023-04-28T06:00:22.261Z,21.15
2023-04-28T06:02:49.281Z,20.13
2023-04-28T06:05:16.669Z,20.48
2023-04-28T06:07:43.675Z,18.40
2023-04-28T06:10:10.956Z,18.65
2023-04-28T06:12:37.656Z,19.70
2023-04-28T06:15:05.566Z,19.65
2023-04-28T06:17:33.497Z,17.20
2023-04-28T06:20:00.511Z,19.10
2023-04-28T06:22:27.243Z,19.15
2023-04-28T06:24:53.983Z,16.77
2023-04-28T06:27:20.684Z,17.23
2023-04-28T06:29:47.252Z,20.98
2023-04-28T06:32:13.981Z,22.38
2023-04-28T06:34:40.654Z,18.98
2023-04-28T06:37:07.271Z,19.80
2023-04-28T06:39:33.896Z,19.58
2023-04-28T06:42:02.401Z,20.83
2023-04-28T06:44:29.036Z,19.40
2023-04-28T06:46:55.804Z,20.98
2023-04-28T06:49:22.468Z,19.15
2023-04-28T06:51:49.052Z,23.13
2023-04-28T06:54:16.852Z,18.73
2023-04-28T06:56:43.846Z,21.52
2023-04-28T06:59:10.491Z,18.25
2023-04-28T07:01:37.378Z,20.15
2023-04-28T07:04:04.320Z,17.92
2023-04-28T07:06:32.503Z,22.30
2023-04-28T07:08:59.204Z,20.30
2023-04-28T07:11:25.896Z,20.00
2023-04-28T07:13:52.486Z,19.88
2023-04-28T07:16:19.313Z,20.98
2023-04-28T07:18:46.261Z,19.98
2023-04-28T07:21:13.034Z,21.25
2023-04-28T07:23:42.549Z,19.42
2023-04-28T07:26:11.485Z,20.73
2023-04-28T07:29:02.822Z,21.02
2023-04-28T07:31:30.468Z,20.45
2023-04-28T07:33:57.178Z,18.50
2023-04-28T07:36:23.956Z,20.10
2023-04-28T07:38:51.244Z,16.13
2023-04-28T07:41:19.037Z,18.33
2023-04-28T07:43:45.989Z,19.98
2023-04-28T07:46:13.287Z,20.92
2023-04-28T07:48:40.020Z,17.48
2023-04-28T07:51:07.302Z,22.65
2023-04-28T07:53:34.378Z,16.73
2023-04-28T07:56:01.733Z,19.35
2023-04-28T07:58:28.636Z,19.83
2023-04-28T08:00:55.494Z,20.42
2023-04-28T08:03:22.626Z,22.25
2023-04-28T08:05:49.602Z,20.45
2023-04-28T08:08:16.222Z,22.38
2023-04-28T08:10:43.927Z,17.35
2023-04-28T08:13:10.817Z,18.90
2023-04-28T08:15:37.587Z,18.30
2023-04-28T08:18:04.491Z,18.20
2023-04-28T08:20:32.711Z,18.70
2023-04-28T08:22:59.432Z,20.92
2023-04-28T08:25:26.377Z,19.23
2023-04-28T08:27:54.445Z,21.48
2023-04-28T08:32:49.083Z,27.23
2023-04-28T08:35:16.015Z,23.13
2023-04-28T08:37:43.075Z,29.20
2023-04-28T08:40:10.399Z,28.20
2023-04-28T08:42:38.265Z,31.98
2023-04-28T08:45:06.284Z,28.83
2023-04-28T08:47:38.482Z,23.52
2023-04-28T08:50:08.077Z,23.38
2023-04-28T08:52:36.265Z,25.23
2023-04-28T08:55:13.131Z,25.13
2023-04-28T08:57:43.146Z,24.13
2023-04-28T09:00:11.191Z,24.85
2023-04-28T09:02:38.586Z,21.52
2023-04-28T09:05:08.540Z,20.35
2023-04-28T09:07:36.563Z,24.13
2023-04-28T09:10:22.564Z,25.17
2023-04-28T09:12:52.656Z,24.40
2023-04-28T09:15:45.694Z,25.77
2023-04-28T09:18:15.651Z,25.92
2023-04-28T09:20:42.497Z,25.23
2023-04-28T09:23:22.779Z,25.75
2023-04-28T09:25:59.860Z,24.48
2023-04-28T09:28:26.566Z,24.60
2023-04-28T09:30:54.740Z,25.58
2023-04-28T09:33:22.482Z,21.98
2023-04-28T09:35:49.341Z,20.88
2023-04-28T09:38:17.105Z,23.25
2023-04-28T09:41:01.164Z,18.90
2023-04-28T09:43:27.903Z,24.70
2023-04-28T09:45:56.194Z,21.60
2023-04-28T09:48:31.991Z,25.50
2023-04-28T09:51:09.105Z,21.92
2023-04-28T09:53:36.617Z,26.70
2023-04-28T09:56:05.384Z,26.77
2023-04-28T09:58:35.356Z,24.00
2023-04-28T10:01:02.371Z,19.05
2023-04-28T10:03:30.952Z,23.63
2023-04-28T10:06:21.049Z,23.30
2023-04-28T10:08:51.262Z,22.85
2023-04-28T10:11:18.118Z,22.65
2023-04-28T10:13:45.670Z,22.75
2023-04-28T10:16:14.534Z,19.45
2023-04-28T10:18:42.208Z,18.55
2023-04-28T10:21:09.585Z,20.25
2023-04-28T10:23:58.023Z,19.08
2023-04-28T10:26:36.560Z,20.67
2023-04-28T10:29:04.073Z,20.53
2023-04-28T10:31:30.734Z,20.95
2023-04-28T10:34:22.155Z,17.95
2023-04-28T10:36:51.055Z,26.13
2023-04-28T10:39:18.009Z,25.08
2023-04-28T10:41:49.230Z,21.60
2023-04-28T10:44:31.552Z,138.18
2023-04-28T10:47:05.184Z,24.83
2023-04-28T10:50:01.113Z,23.50
2023-04-28T10:52:33.576Z,27.13
2023-04-28T10:55:27.193Z,21.63
2023-04-28T10:58:17.531Z,20.08
2023-04-28T11:00:48.401Z,27.20
2023-04-28T11:03:49.837Z,25.77
2023-04-28T11:06:27.270Z,20.80
2023-04-28T11:08:56.537Z,25.58
2023-04-28T11:11:26.013Z,24.50
2023-04-28T11:16:23.690Z,25.35
2023-04-28T11:21:16.918Z,25.90
2023-04-28T11:23:44.450Z,24.45
2023-04-28T11:26:11.241Z,23.00
2023-04-28T11:28:51.022Z,22.15
2023-04-28T11:31:22.478Z,21.38
2023-04-28T11:33:55.745Z,18.95
2023-04-28T11:36:43.936Z,19.83
2023-04-28T11:39:12.692Z,21.25
2023-04-28T11:41:44.830Z,19.67
2023-04-28T11:44:16.443Z,17.63
2023-04-28T11:46:50.971Z,19.70
2023-04-28T11:49:18.927Z,20.77
2023-04-28T11:51:48.628Z,17.38
2023-04-28T11:54:29.186Z,17.67
2023-04-28T11:56:57.596Z,16.35
2023-04-28T11:59:51.307Z,14.48
2023-04-28T12:02:28.362Z,17.20
2023-04-28T12:04:55.396Z,16.48
2023-04-28T12:07:22.235Z,15.00
2023-04-28T12:10:16.786Z,16.10
2023-04-28T12:12:50.797Z,17.35
2023-04-28T12:15:20.110Z,16.15
2023-04-28T12:20:35.506Z,14.45
2023-04-28T12:23:02.901Z,13.68
2023-04-28T12:25:29.815Z,14.55
2023-04-28T12:28:04.769Z,15.60
2023-04-28T12:30:38.905Z,14.43
2023-04-28T12:33:06.048Z,14.10
2023-04-28T12:35:33.287Z,13.15
2023-04-28T12:38:00.357Z,14.90
2023-04-28T12:40:27.210Z,12.30
2023-04-28T12:42:54.175Z,14.45
2023-04-28T12:45:20.936Z,15.48
2023-04-28T12:47:48.385Z,12.57
2023-04-28T12:50:15.307Z,14.25
2023-04-28T12:52:41.909Z,11.48
2023-04-28T12:55:08.933Z,11.60
2023-04-28T12:57:38.983Z,10.70
2023-04-28T13:00:07.642Z,9.13
2023-04-28T13:02:35.080Z,8.38
2023-04-28T13:05:02.114Z,8.80
2023-04-28T13:07:30.296Z,6.95
2023-04-28T13:09:57.384Z,5.03
2023-04-28T13:12:24.244Z,4.68
2023-04-28T13:14:51.146Z,4.80
2023-04-28T13:17:18.016Z,4.50
2023-04-28T13:19:45.068Z,4.40
2023-04-28T13:22:12.437Z,4.75
2023-04-28T13:24:39.038Z,4.95
2023-04-28T13:27:09.708Z,4.65
2023-04-28T13:29:36.992Z,4.25
2023-04-28T13:32:05.548Z,5.25
2023-04-28T13:34:32.847Z,4.97
2023-04-28T13:36:59.605Z,4.53
2023-04-28T13:39:26.188Z,4.72
2023-04-28T13:41:52.934Z,4.40
2023-04-28T13:44:19.544Z,4.40
2023-04-28T13:46:46.308Z,4.03
2023-04-28T13:49:13.251Z,4.60
2023-04-28T13:51:40.012Z,4.63
2023-04-28T13:54:13.274Z,4.30
2023-04-28T13:56:40.062Z,4.88
2023-04-28T13:59:07.358Z,5.47
2023-04-28T14:01:34.035Z,5.28
2023-04-28T14:04:01.141Z,4.22
2023-04-28T14:06:28.035Z,5.70
2023-04-28T14:08:54.733Z,4.88
2023-04-28T14:11:21.550Z,4.82
2023-04-28T14:13:48.213Z,5.55
2023-04-28T14:16:14.880Z,5.60
2023-04-28T14:18:41.707Z,5.45
2023-04-28T14:21:08.664Z,6.13
2023-04-28T14:23:35.670Z,5.50
2023-04-28T14:26:02.686Z,5.25
2023-04-28T14:28:29.587Z,5.47
2023-04-28T14:30:56.668Z,6.20
2023-04-28T14:33:23.519Z,5.28
2023-04-28T14:35:50.129Z,6.30
2023-04-28T14:38:16.795Z,5.82
2023-04-28T14:40:43.434Z,4.80
2023-04-28T14:43:11.357Z,5.90
2023-04-28T14:45:40.964Z,6.50
2023-04-28T14:48:08.049Z,5.63
2023-04-28T14:50:35.101Z,5.32
2023-04-28T14:53:05.677Z,5.78
2023-04-28T14:55:33.184Z,5.95
2023-04-28T14:57:59.785Z,5.03
2023-04-28T15:00:26.459Z,6.88
2023-04-28T15:02:53.365Z,6.35
2023-04-28T15:05:20.155Z,5.72
2023-04-28T15:07:46.897Z,5.38
2023-04-28T15:10:13.544Z,5.28
2023-04-28T15:12:40.185Z,5.50
2023-04-28T15:15:07.947Z,5.93
2023-04-28T15:17:34.680Z,5.53
2023-04-28T15:20:01.536Z,5.88
2023-04-28T15:22:28.118Z,6.88
2023-04-28T15:24:55.957Z,5.53
2023-04-28T15:27:23.226Z,5.28
2023-04-28T15:29:50.531Z,6.30
2023-04-28T15:32:17.558Z,6.28
2023-04-28T15:34:44.315Z,6.10
2023-04-28T15:37:29.823Z,5.53
2023-04-28T15:39:56.547Z,5.93
2023-04-28T15:42:23.187Z,5.63
2023-04-28T15:44:50.434Z,6.13
2023-04-28T15:47:17.674Z,5.47
2023-04-28T15:49:44.302Z,5.65
2023-04-28T15:52:11.429Z,5.72
2023-04-28T15:54:39.583Z,6.22
2023-04-28T15:57:06.533Z,5.50
2023-04-28T15:59:33.541Z,6.28
2023-04-28T16:02:00.259Z,5.95
2023-04-28T16:04:27.007Z,6.90
2023-04-28T16:06:55.435Z,6.38
2023-04-28T16:09:22.075Z,5.72
2023-04-28T16:11:48.707Z,5.60
2023-04-28T16:14:15.591Z,6.03
2023-04-28T16:16:42.384Z,6.13
2023-04-28T16:19:10.004Z,5.50
2023-04-28T16:21:36.758Z,5.57
2023-04-28T16:24:04.512Z,5.53
2023-04-28T16:26:31.256Z,6.63
2023-04-28T16:28:57.796Z,6.10
2023-04-28T16:31:24.443Z,5.80
2023-04-28T16:33:51.149Z,7.00
2023-04-28T16:36:17.896Z,6.65
2023-04-28T16:38:46.568Z,6.10
2023-04-28T16:41:13.355Z,6.57
2023-04-28T16:43:39.997Z,6.63
2023-04-28T16:46:07.566Z,6.70
2023-04-28T16:48:34.330Z,5.57
2023-04-28T16:51:01.140Z,7.07
2023-04-28T16:53:27.741Z,6.82
2023-04-28T16:55:54.339Z,7.50
2023-04-28T16:58:21.172Z,10.18
2023-04-28T17:00:48.088Z,7.10
2023-04-28T17:03:14.714Z,6.30
2023-04-28T17:05:41.547Z,6.65
2023-04-28T17:08:08.156Z,6.03
2023-04-28T17:10:38.003Z,6.82
2023-04-28T17:13:04.944Z,6.35
2023-04-28T17:15:31.641Z,6.10
2023-04-28T17:17:58.299Z,6.10
2023-04-28T17:20:25.011Z,5.30
2023-04-28T17:22:52.832Z,5.88
2023-04-28T17:25:22.407Z,5.82
2023-04-28T17:27:49.243Z,6.18
2023-04-28T17:30:16.177Z,5.60
2023-04-28T17:32:42.825Z,5.78
2023-04-28T17:35:09.494Z,6.18
2023-04-28T17:37:37.237Z,6.88
2023-04-28T17:40:04.723Z,5.47
2023-04-28T17:42:31.935Z,5.88
2023-04-28T17:44:58.855Z,5.97
2023-04-28T17:47:25.649Z,5.65
2023-04-28T17:49:52.436Z,4.80
2023-04-28T17:52:19.143Z,5.35
2023-04-28T17:54:45.849Z,5.82
2023-04-28T17:57:13.206Z,5.53
2023-04-28T17:59:40.717Z,5.53
2023-04-28T18:02:11.578Z,5.70
2023-04-28T18:04:38.691Z,5.57
2023-04-28T18:07:07.841Z,7.18
2023-04-28T18:09:34.472Z,5.05
2023-04-28T18:12:03.177Z,6.43
2023-04-28T18:14:30.318Z,6.85
2023-04-28T18:16:57.732Z,6.72
2023-04-28T18:19:27.557Z,7.07
2023-04-28T18:21:58.171Z,7.22
2023-04-28T18:24:24.936Z,6.88
2023-04-28T18:26:51.608Z,6.88
2023-04-28T18:29:21.268Z,7.00
2023-04-28T18:31:48.065Z,7.63
2023-04-28T18:34:14.739Z,7.85
2023-04-28T18:36:41.347Z,7.40
2023-04-28T18:39:11.302Z,6.90
2023-04-28T18:41:39.486Z,6.95
2023-04-28T18:44:06.292Z,8.63
2023-04-28T18:46:33.736Z,6.82
2023-04-28T18:49:00.370Z,8.63
2023-04-28T18:51:27.122Z,8.38
2023-04-28T18:53:53.718Z,7.70
2023-04-28T18:56:21.900Z,7.55
2023-04-28T18:58:48.533Z,6.90
2023-04-28T19:01:18.378Z,7.55
2023-04-28T19:03:45.280Z,7.63
2023-04-28T19:06:12.131Z,9.25
2023-04-28T19:08:39.398Z,9.30
2023-04-28T19:11:09.640Z,9.23
2023-04-28T19:13:37.612Z,8.95
2023-04-28T19:16:05.048Z,7.97
2023-04-28T19:18:33.195Z,9.60
2023-04-28T19:21:04.743Z,9.43
2023-04-28T19:23:32.723Z,9.60
2023-04-28T19:25:59.972Z,10.77
2023-04-28T19:28:26.832Z,10.50
2023-04-28T19:30:54.623Z,11.02
2023-04-28T19:33:28.003Z,9.45
2023-04-28T19:35:55.206Z,10.95
2023-04-28T19:38:23.338Z,9.75
2023-04-28T19:40:51.019Z,10.13
2023-04-28T19:43:18.141Z,9.88
2023-04-28T19:45:46.643Z,9.30
2023-04-28T19:48:14.601Z,9.23
2023-04-28T19:50:42.129Z,15.38
2023-04-28T19:53:09.437Z,12.45
2023-04-28T19:55:36.894Z,10.13
2023-04-28T19:58:04.053Z,11.43
2023-04-28T20:00:32.475Z,10.43
2023-04-28T20:03:00.004Z,10.65
2023-04-28T20:05:27.033Z,10.52
2023-04-28T20:07:56.103Z,12.60
2023-04-28T20:12:50.038Z,12.98
2023-04-28T20:15:18.489Z,13.40
2023-04-28T20:17:46.097Z,11.73
2023-04-28T20:20:12.979Z,10.45
2023-04-28T20:22:41.176Z,12.32
2023-04-28T20:25:10.493Z,12.50
2023-04-28T20:27:37.524Z,14.45
2023-04-28T20:30:04.953Z,12.10
2023-04-28T20:32:31.644Z,11.23
2023-04-28T20:34:58.304Z,11.82
2023-04-28T20:37:26.500Z,11.23
2023-04-28T20:39:53.552Z,11.75
2023-04-28T20:42:20.300Z,11.20
2023-04-28T20:44:46.956Z,14.90
2023-04-28T20:47:14.025Z,12.38
2023-04-28T20:49:40.687Z,11.65
2023-04-28T20:52:07.488Z,11.65
2023-04-28T20:54:36.134Z,11.73
2023-04-28T20:57:04.726Z,11.50
2023-04-28T20:59:32.752Z,11.53
2023-04-28T21:02:00.012Z,12.48
2023-04-28T21:04:28.232Z,13.80
2023-04-28T21:06:55.641Z,12.00
2023-04-28T21:09:25.244Z,12.93
2023-04-28T21:11:52.489Z,12.68
2023-04-28T21:14:19.252Z,14.57
2023-04-28T21:16:46.039Z,13.02
2023-04-28T21:19:12.933Z,12.57
2023-04-28T21:21:39.555Z,13.60
2023-04-28T21:24:08.031Z,13.38
2023-04-28T21:26:35.898Z,12.63
2023-04-28T21:29:03.204Z,13.48
2023-04-28T21:31:30.716Z,12.52
2023-04-28T21:33:57.631Z,14.10
2023-04-28T21:36:24.387Z,14.70
2023-04-28T21:38:51.014Z,12.23
2023-04-28T21:41:17.689Z,12.30
2023-04-28T21:43:44.406Z,15.38
2023-04-28T21:46:11.441Z,15.35
2023-04-28T21:48:38.601Z,15.70
2023-04-28T21:51:05.413Z,15.38
2023-04-28T21:53:32.109Z,15.75
2023-04-28T21:55:58.767Z,14.25
2023-04-28T21:58:25.466Z,15.70
2023-04-28T22:00:52.418Z,16.00
2023-04-28T22:03:19.886Z,14.60
2023-04-28T22:05:47.016Z,15.88
2023-04-28T22:08:14.278Z,14.20
2023-04-28T22:10:40.988Z,13.73
2023-04-28T22:13:07.706Z,13.10
2023-04-28T22:15:34.455Z,15.18
2023-04-28T22:18:01.220Z,12.45
2023-04-28T22:20:28.047Z,12.50
2023-04-28T22:22:54.761Z,11.60
2023-04-28T22:25:21.609Z,10.82
2023-04-28T22:27:48.355Z,11.77
2023-04-28T22:30:15.666Z,11.00
2023-04-28T22:32:47.272Z,12.40
2023-04-28T22:35:14.753Z,12.57
2023-04-28T22:37:41.403Z,11.82
2023-04-28T22:40:08.947Z,13.55
2023-04-28T22:42:40.039Z,11.98
2023-04-28T22:45:07.198Z,12.27
2023-04-28T22:47:34.624Z,12.25
2023-04-28T22:50:04.061Z,11.30
2023-04-28T22:54:59.062Z,11.27
2023-04-28T22:57:25.986Z,11.90
2023-04-28T22:59:52.953Z,10.15
2023-04-28T23:02:20.465Z,10.07
2023-04-28T23:04:47.123Z,9.98
2023-04-28T23:07:13.764Z,9.63
2023-04-28T23:09:40.406Z,9.23
2023-04-28T23:12:07.365Z,8.93
2023-04-28T23:14:34.368Z,9.13
2023-04-28T23:17:00.970Z,10.43
2023-04-28T23:19:27.646Z,10.75
2023-04-28T23:21:54.514Z,10.27
2023-04-28T23:24:21.098Z,11.80
2023-04-28T23:26:47.814Z,11.85
2023-04-28T23:29:14.576Z,10.57
2023-04-28T23:31:41.341Z,10.18
2023-04-28T23:34:09.038Z,11.63
2023-04-28T23:36:36.467Z,11.95
2023-04-28T23:39:03.158Z,11.00
2023-04-28T23:41:29.817Z,13.32
2023-04-28T23:43:56.758Z,12.20
2023-04-28T23:46:23.552Z,13.45
2023-04-28T23:48:50.164Z,12.25
2023-04-28T23:51:16.813Z,10.60
2023-04-28T23:53:43.636Z,9.55
2023-04-28T23:56:10.253Z,8.13
2023-04-28T23:58:37.761Z,7.40
